SAEZSAAR

Guest
Details From SAEZ - Ministro Pistarini (ezeiza)
To SAAR - Rosario (islas Malvinas)
Flight Number -
Tags Generated
Created
Modified
Stats Distance 160 nm / 296 km
Max Altitude 0 ft / 0 m
Waypoints 2
Social Downloads 2
Likes 0
Share VATSIM

Download

Looking for another format? Having issues loading an existing format? Contact us
Advertisement - Login to hide

Notes

Generated

Route

SAEZ SAAR

ID Type Via Altitude Latitude Longitude Leg Dist Tot Dist Heading (true) Name
O SAEZ APT - 0 ft / 0 m -34.80841˚ -58.53386˚ - 0 nm - -
O SAAR APT - 0 ft / 0 m -32.91677˚ -60.78765˚ 159 nm 159 nm 315° / 316° -

Altitude Profile

Advertisement - Login to hide

SAEZ

Details ICAO SAEZ (EZE)
Name Ministro Pistarini (Ezeiza)
Region Argentina
Timezone America/Argentina/Buenos_Aires (UTC-3.0)
Stats Elevation 66 ft / 20 m (AMSL)
Location -34.821380° -58.532731°
Runways 2
Magnetic Variation 8.722° W

METAR

SAEZ 111500Z 13006KT CAVOK 21/09 Q1017

Decode

TAF

TAF SAEZ 111100Z 1112/1212 13010KT CAVOK TX26/1118Z TN13/1208Z BECMG 1115/1118 9999 FEW050 BECMG 1206/1209 02010KT 9999 NSC

Decode

Departure Runways

ID Width Length Bearing (true) Bearing (mag) Surface Threshold Offset Overrun Length
11 190 ft / 58 m 10,778 ft / 3,285 m 102.20° 110.92° Asphalt 0 ft / 0 m 0 ft / 0 m
17 151 ft / 46 m 9,153 ft / 2,790 m 163.98° 172.70° Asphalt 0 ft / 0 m 98 ft / 30 m
29 190 ft / 58 m 10,778 ft / 3,285 m 282.18° 290.90° Asphalt 0 ft / 0 m 115 ft / 35 m
35 151 ft / 46 m 9,153 ft / 2,790 m 343.98° 352.70° Asphalt 984 ft / 300 m 1,024 ft / 312 m

SAAR

Details ICAO SAAR (ROS)
Name Rosario (Islas Malvinas)
Region Argentina
Timezone America/Argentina/Cordoba (UTC-3.0)
Stats Elevation 85 ft / 26 m (AMSL)
Location -32.903472° -60.784635°
Runways 1
Magnetic Variation 7.840° W

METAR

SAAR 111500Z 07007KT CAVOK 22/08 Q1017

Decode

TAF

TAF SAAR 111100Z 1112/1212 14010KT CAVOK TX27/1118Z TN16/1210Z BECMG 1117/1119 11010KT BECMG 1206/1208 05010KT

Decode

Destination Runways

ID Width Length Bearing (true) Bearing (mag) Surface Threshold Offset Overrun Length
02 148 ft / 45 m 9,878 ft / 3,011 m 10.78° 18.62° Concrete 0 ft / 0 m 128 ft / 39 m
20 148 ft / 45 m 9,878 ft / 3,011 m 190.78° 198.62° Concrete 0 ft / 0 m 0 ft / 0 m

Approach Navaids

Runway Type Ident Frequency Range Bearing (true) Bearing (mag) Slope Elevation
20 Localiser RO 109.90 MHz 18 nm / 33 km 190.75° 198.59° - 87 ft / 27 m (AMSL)
20 Glidescope RO 109.90 MHz 10 nm / 19 km 190.78° 198.62° 3.00° 138 ft / 42 m (AMSL)
20 DME RO 109.90 MHz 18 nm / 33 km - - - 138 ft / 42 m (AMSL)
20 DME RO 109.90 MHz 18 nm / 33 km - - - 138 ft / 42 m (AMSL)

Popular Alternatives